sensor_id;sensor_type;location;lat;lon;timestamp;P1;durP1;ratioP1;P2;durP2;ratioP2
42602;SDS011;28233;55.748;48.752;2022-08-30T00:01:41;16.13;;;6.38;;
42602;SDS011;28233;55.748;48.752;2022-08-30T00:03:44;16.27;;;5.75;;
42602;SDS011;28233;55.748;48.752;2022-08-30T00:05:49;13.27;;;6.68;;
42602;SDS011;28233;55.748;48.752;2022-08-30T00:07:57;9.27;;;6.10;;
42602;SDS011;28233;55.748;48.752;2022-08-30T00:10:00;26.00;;;6.55;;
42602;SDS011;28233;55.748;48.752;2022-08-30T00:12:04;11.65;;;5.93;;
42602;SDS011;28233;55.748;48.752;2022-08-30T00:14:07;8.05;;;6.43;;
42602;SDS011;28233;55.748;48.752;2022-08-30T00:16:10;13.35;;;6.47;;
42602;SDS011;28233;55.748;48.752;2022-08-30T00:18:14;17.75;;;6.97;;
42602;SDS011;28233;55.748;48.752;2022-08-30T00:20:20;15.25;;;6.85;;
42602;SDS011;28233;55.748;48.752;2022-08-30T00:22:25;17.63;;;6.57;;
42602;SDS011;28233;55.748;48.752;2022-08-30T00:24:28;7.53;;;6.03;;
42602;SDS011;28233;55.748;48.752;2022-08-30T00:26:31;9.70;;;6.45;;
42602;SDS011;28233;55.748;48.752;2022-08-30T00:28:34;11.50;;;6.60;;
42602;SDS011;28233;55.748;48.752;2022-08-30T00:30:37;11.80;;;6.15;;
42602;SDS011;28233;55.748;48.752;2022-08-30T00:32:41;9.52;;;7.50;;
42602;SDS011;28233;55.748;48.752;2022-08-30T00:34:44;16.95;;;7.07;;
42602;SDS011;28233;55.748;48.752;2022-08-30T00:36:47;12.38;;;6.20;;
42602;SDS011;28233;55.748;48.752;2022-08-30T00:38:49;7.50;;;6.07;;
42602;SDS011;28233;55.748;48.752;2022-08-30T00:40:52;12.20;;;6.65;;
42602;SDS011;28233;55.748;48.752;2022-08-30T00:42:56;10.23;;;6.03;;
42602;SDS011;28233;55.748;48.752;2022-08-30T00:45:15;11.95;;;6.70;;
42602;SDS011;28233;55.748;48.752;2022-08-30T00:47:21;8.57;;;6.10;;
42602;SDS011;28233;55.748;48.752;2022-08-30T00:49:24;18.95;;;7.20;;
42602;SDS011;28233;55.748;48.752;2022-08-30T00:51:27;10.93;;;6.18;;
42602;SDS011;28233;55.748;48.752;2022-08-30T00:53:31;12.60;;;6.78;;
42602;SDS011;28233;55.748;48.752;2022-08-30T00:55:38;12.57;;;6.80;;
42602;SDS011;28233;55.748;48.752;2022-08-30T00:57:45;8.95;;;6.07;;
42602;SDS011;28233;55.748;48.752;2022-08-30T00:59:49;12.85;;;7.03;;
42602;SDS011;28233;55.748;48.752;2022-08-30T01:01:52;18.05;;;7.55;;
42602;SDS011;28233;55.748;48.752;2022-08-30T01:03:55;10.75;;;7.05;;
42602;SDS011;28233;55.748;48.752;2022-08-30T01:05:57;10.15;;;6.78;;
42602;SDS011;28233;55.748;48.752;2022-08-30T01:08:02;19.50;;;7.40;;
42602;SDS011;28233;55.748;48.752;2022-08-30T01:10:05;9.52;;;7.13;;
42602;SDS011;28233;55.748;48.752;2022-08-30T01:12:11;12.02;;;6.88;;
42602;SDS011;28233;55.748;48.752;2022-08-30T01:14:18;13.68;;;6.80;;
42602;SDS011;28233;55.748;48.752;2022-08-30T01:16:27;13.48;;;6.93;;
42602;SDS011;28233;55.748;48.752;2022-08-30T01:18:36;9.30;;;6.55;;
42602;SDS011;28233;55.748;48.752;2022-08-30T01:25:15;16.13;;;7.40;;
42602;SDS011;28233;55.748;48.752;2022-08-30T01:27:26;16.02;;;6.70;;
42602;SDS011;28233;55.748;48.752;2022-08-30T01:29:31;14.35;;;7.32;;
42602;SDS011;28233;55.748;48.752;2022-08-30T01:31:34;15.15;;;7.22;;
42602;SDS011;28233;55.748;48.752;2022-08-30T01:33:38;11.10;;;7.57;;
42602;SDS011;28233;55.748;48.752;2022-08-30T01:37:54;12.90;;;7.18;;
42602;SDS011;28233;55.748;48.752;2022-08-30T01:39:57;13.18;;;6.45;;
42602;SDS011;28233;55.748;48.752;2022-08-30T01:42:01;10.93;;;7.18;;
42602;SDS011;28233;55.748;48.752;2022-08-30T01:44:06;12.30;;;6.93;;
42602;SDS011;28233;55.748;48.752;2022-08-30T01:46:11;9.10;;;6.28;;
42602;SDS011;28233;55.748;48.752;2022-08-30T01:48:16;15.95;;;7.47;;
42602;SDS011;28233;55.748;48.752;2022-08-30T01:50:19;13.73;;;6.90;;
42602;SDS011;28233;55.748;48.752;2022-08-30T01:52:22;9.63;;;6.78;;
42602;SDS011;28233;55.748;48.752;2022-08-30T01:54:26;14.95;;;7.20;;
42602;SDS011;28233;55.748;48.752;2022-08-30T01:56:39;10.48;;;6.78;;
42602;SDS011;28233;55.748;48.752;2022-08-30T01:58:42;13.50;;;7.22;;
42602;SDS011;28233;55.748;48.752;2022-08-30T02:00:45;12.40;;;6.72;;
42602;SDS011;28233;55.748;48.752;2022-08-30T02:02:47;12.85;;;7.13;;
42602;SDS011;28233;55.748;48.752;2022-08-30T02:04:50;9.43;;;6.97;;
42602;SDS011;28233;55.748;48.752;2022-08-30T02:06:54;12.98;;;7.30;;
42602;SDS011;28233;55.748;48.752;2022-08-30T02:08:57;11.88;;;6.43;;
42602;SDS011;28233;55.748;48.752;2022-08-30T02:11:00;11.00;;;6.78;;
42602;SDS011;28233;55.748;48.752;2022-08-30T02:13:04;14.68;;;7.60;;
42602;SDS011;28233;55.748;48.752;2022-08-30T02:15:07;13.35;;;7.18;;
42602;SDS011;28233;55.748;48.752;2022-08-30T02:17:11;17.55;;;7.07;;
42602;SDS011;28233;55.748;48.752;2022-08-30T02:19:16;14.23;;;6.78;;
42602;SDS011;28233;55.748;48.752;2022-08-30T02:21:19;11.80;;;7.53;;
42602;SDS011;28233;55.748;48.752;2022-08-30T02:23:22;10.95;;;6.78;;
42602;SDS011;28233;55.748;48.752;2022-08-30T02:25:25;13.00;;;7.68;;
42602;SDS011;28233;55.748;48.752;2022-08-30T02:27:27;11.02;;;6.90;;
42602;SDS011;28233;55.748;48.752;2022-08-30T02:29:30;9.93;;;6.32;;
42602;SDS011;28233;55.748;48.752;2022-08-30T02:31:33;18.00;;;7.20;;
42602;SDS011;28233;55.748;48.752;2022-08-30T02:33:36;8.43;;;6.28;;
42602;SDS011;28233;55.748;48.752;2022-08-30T02:35:41;11.18;;;6.97;;
42602;SDS011;28233;55.748;48.752;2022-08-30T02:37:44;11.40;;;7.07;;
42602;SDS011;28233;55.748;48.752;2022-08-30T02:39:46;12.40;;;7.60;;
42602;SDS011;28233;55.748;48.752;2022-08-30T02:41:49;12.75;;;7.28;;
42602;SDS011;28233;55.748;48.752;2022-08-30T02:43:52;12.85;;;7.00;;
42602;SDS011;28233;55.748;48.752;2022-08-30T02:45:59;9.38;;;7.18;;
42602;SDS011;28233;55.748;48.752;2022-08-30T02:48:02;12.68;;;6.95;;
42602;SDS011;28233;55.748;48.752;2022-08-30T02:50:06;9.48;;;6.28;;
42602;SDS011;28233;55.748;48.752;2022-08-30T02:52:10;12.73;;;7.25;;
42602;SDS011;28233;55.748;48.752;2022-08-30T02:54:12;9.82;;;6.78;;
42602;SDS011;28233;55.748;48.752;2022-08-30T02:56:20;10.07;;;7.20;;
42602;SDS011;28233;55.748;48.752;2022-08-30T02:58:23;11.73;;;5.95;;
42602;SDS011;28233;55.748;48.752;2022-08-30T03:00:26;8.45;;;6.30;;
42602;SDS011;28233;55.748;48.752;2022-08-30T03:02:28;10.35;;;6.85;;
42602;SDS011;28233;55.748;48.752;2022-08-30T03:04:31;14.82;;;6.75;;
42602;SDS011;28233;55.748;48.752;2022-08-30T03:06:34;14.63;;;7.57;;
42602;SDS011;28233;55.748;48.752;2022-08-30T03:08:37;9.65;;;6.78;;
42602;SDS011;28233;55.748;48.752;2022-08-30T03:10:40;13.52;;;7.03;;
42602;SDS011;28233;55.748;48.752;2022-08-30T03:12:43;11.30;;;6.60;;
42602;SDS011;28233;55.748;48.752;2022-08-30T03:14:45;10.43;;;6.82;;
42602;SDS011;28233;55.748;48.752;2022-08-30T03:16:49;10.43;;;5.78;;
42602;SDS011;28233;55.748;48.752;2022-08-30T03:18:52;13.00;;;6.68;;
42602;SDS011;28233;55.748;48.752;2022-08-30T03:20:55;11.57;;;6.85;;
42602;SDS011;28233;55.748;48.752;2022-08-30T03:22:58;8.52;;;6.25;;
42602;SDS011;28233;55.748;48.752;2022-08-30T03:25:00;10.13;;;7.03;;
42602;SDS011;28233;55.748;48.752;2022-08-30T03:27:05;14.18;;;6.63;;
42602;SDS011;28233;55.748;48.752;2022-08-30T03:29:09;10.52;;;6.45;;
42602;SDS011;28233;55.748;48.752;2022-08-30T03:31:12;12.77;;;7.28;;
42602;SDS011;28233;55.748;48.752;2022-08-30T03:33:15;12.07;;;6.38;;
42602;SDS011;28233;55.748;48.752;2022-08-30T03:35:21;9.63;;;5.95;;
42602;SDS011;28233;55.748;48.752;2022-08-30T03:37:23;15.10;;;6.63;;
42602;SDS011;28233;55.748;48.752;2022-08-30T03:39:28;12.18;;;7.07;;
42602;SDS011;28233;55.748;48.752;2022-08-30T03:41:31;9.75;;;6.25;;
42602;SDS011;28233;55.748;48.752;2022-08-30T03:43:34;10.15;;;6.38;;
42602;SDS011;28233;55.748;48.752;2022-08-30T03:45:37;9.95;;;5.68;;
42602;SDS011;28233;55.748;48.752;2022-08-30T03:47:40;9.90;;;6.50;;
42602;SDS011;28233;55.748;48.752;2022-08-30T03:49:43;7.93;;;6.47;;
42602;SDS011;28233;55.748;48.752;2022-08-30T03:51:46;11.00;;;6.82;;
42602;SDS011;28233;55.748;48.752;2022-08-30T03:53:49;12.23;;;5.65;;
42602;SDS011;28233;55.748;48.752;2022-08-30T03:55:52;10.60;;;6.70;;
42602;SDS011;28233;55.748;48.752;2022-08-30T03:57:56;14.52;;;6.78;;
42602;SDS011;28233;55.748;48.752;2022-08-30T03:59:59;10.80;;;6.65;;
42602;SDS011;28233;55.748;48.752;2022-08-30T04:02:01;13.63;;;6.20;;
42602;SDS011;28233;55.748;48.752;2022-08-30T04:04:04;10.05;;;6.20;;
42602;SDS011;28233;55.748;48.752;2022-08-30T04:06:07;9.75;;;6.93;;
42602;SDS011;28233;55.748;48.752;2022-08-30T04:08:10;11.02;;;7.05;;
42602;SDS011;28233;55.748;48.752;2022-08-30T04:10:13;9.85;;;6.25;;
42602;SDS011;28233;55.748;48.752;2022-08-30T04:12:16;13.40;;;6.70;;
42602;SDS011;28233;55.748;48.752;2022-08-30T04:14:23;11.77;;;6.97;;
42602;SDS011;28233;55.748;48.752;2022-08-30T04:16:26;18.52;;;8.00;;
42602;SDS011;28233;55.748;48.752;2022-08-30T04:18:29;14.68;;;7.20;;
42602;SDS011;28233;55.748;48.752;2022-08-30T04:20:32;12.10;;;7.65;;
42602;SDS011;28233;55.748;48.752;2022-08-30T04:22:35;15.45;;;7.25;;
42602;SDS011;28233;55.748;48.752;2022-08-30T04:24:38;11.73;;;7.35;;
42602;SDS011;28233;55.748;48.752;2022-08-30T04:26:42;11.15;;;6.63;;
42602;SDS011;28233;55.748;48.752;2022-08-30T04:28:45;20.67;;;7.93;;
42602;SDS011;28233;55.748;48.752;2022-08-30T04:30:48;10.85;;;6.90;;
42602;SDS011;28233;55.748;48.752;2022-08-30T04:32:50;16.23;;;7.70;;
42602;SDS011;28233;55.748;48.752;2022-08-30T04:34:59;16.58;;;7.00;;
42602;SDS011;28233;55.748;48.752;2022-08-30T04:37:02;14.68;;;8.20;;
42602;SDS011;28233;55.748;48.752;2022-08-30T04:39:05;11.00;;;7.20;;
42602;SDS011;28233;55.748;48.752;2022-08-30T04:41:10;15.18;;;7.47;;
42602;SDS011;28233;55.748;48.752;2022-08-30T04:43:17;16.90;;;7.28;;
42602;SDS011;28233;55.748;48.752;2022-08-30T04:45:20;22.10;;;7.93;;
42602;SDS011;28233;55.748;48.752;2022-08-30T04:47:24;13.65;;;7.60;;
42602;SDS011;28233;55.748;48.752;2022-08-30T04:49:27;8.90;;;6.57;;
42602;SDS011;28233;55.748;48.752;2022-08-30T04:51:30;17.63;;;8.05;;
42602;SDS011;28233;55.748;48.752;2022-08-30T04:53:33;13.43;;;6.78;;
42602;SDS011;28233;55.748;48.752;2022-08-30T04:55:38;14.05;;;7.35;;
42602;SDS011;28233;55.748;48.752;2022-08-30T04:57:42;15.00;;;7.13;;
42602;SDS011;28233;55.748;48.752;2022-08-30T04:59:47;13.25;;;6.60;;
42602;SDS011;28233;55.748;48.752;2022-08-30T05:01:50;11.68;;;7.60;;
42602;SDS011;28233;55.748;48.752;2022-08-30T05:03:54;12.35;;;7.32;;
42602;SDS011;28233;55.748;48.752;2022-08-30T05:05:57;14.10;;;7.05;;
42602;SDS011;28233;55.748;48.752;2022-08-30T05:08:00;13.35;;;7.60;;
42602;SDS011;28233;55.748;48.752;2022-08-30T05:10:03;16.83;;;7.85;;
42602;SDS011;28233;55.748;48.752;2022-08-30T05:12:12;9.48;;;7.30;;
42602;SDS011;28233;55.748;48.752;2022-08-30T05:14:15;14.75;;;7.18;;
42602;SDS011;28233;55.748;48.752;2022-08-30T05:16:20;9.80;;;7.55;;
42602;SDS011;28233;55.748;48.752;2022-08-30T05:18:24;11.27;;;7.82;;
42602;SDS011;28233;55.748;48.752;2022-08-30T05:20:28;15.85;;;8.63;;
42602;SDS011;28233;55.748;48.752;2022-08-30T05:22:31;21.45;;;7.88;;
42602;SDS011;28233;55.748;48.752;2022-08-30T05:24:36;14.27;;;7.18;;
42602;SDS011;28233;55.748;48.752;2022-08-30T05:26:39;14.52;;;7.93;;
42602;SDS011;28233;55.748;48.752;2022-08-30T05:28:42;12.35;;;6.72;;
42602;SDS011;28233;55.748;48.752;2022-08-30T05:30:45;18.50;;;6.93;;
42602;SDS011;28233;55.748;48.752;2022-08-30T05:32:48;26.40;;;6.90;;
42602;SDS011;28233;55.748;48.752;2022-08-30T05:34:51;16.02;;;7.30;;
42602;SDS011;28233;55.748;48.752;2022-08-30T05:36:54;20.95;;;7.32;;
42602;SDS011;28233;55.748;48.752;2022-08-30T05:38:57;17.27;;;7.28;;
42602;SDS011;28233;55.748;48.752;2022-08-30T05:41:02;11.85;;;6.85;;
42602;SDS011;28233;55.748;48.752;2022-08-30T05:43:12;14.38;;;7.22;;
42602;SDS011;28233;55.748;48.752;2022-08-30T05:45:15;9.13;;;6.55;;
42602;SDS011;28233;55.748;48.752;2022-08-30T05:47:18;12.85;;;7.22;;
42602;SDS011;28233;55.748;48.752;2022-08-30T05:49:22;14.60;;;7.13;;
42602;SDS011;28233;55.748;48.752;2022-08-30T05:51:25;14.88;;;7.93;;
42602;SDS011;28233;55.748;48.752;2022-08-30T05:53:32;37.20;;;7.53;;
42602;SDS011;28233;55.748;48.752;2022-08-30T05:55:35;16.75;;;7.35;;
42602;SDS011;28233;55.748;48.752;2022-08-30T05:57:39;15.13;;;7.60;;
42602;SDS011;28233;55.748;48.752;2022-08-30T05:59:42;18.13;;;7.00;;
42602;SDS011;28233;55.748;48.752;2022-08-30T06:01:45;13.27;;;7.35;;
42602;SDS011;28233;55.748;48.752;2022-08-30T06:03:48;18.67;;;7.45;;
42602;SDS011;28233;55.748;48.752;2022-08-30T06:05:51;15.27;;;8.48;;
42602;SDS011;28233;55.748;48.752;2022-08-30T06:07:54;20.35;;;6.72;;
42602;SDS011;28233;55.748;48.752;2022-08-30T06:09:57;17.45;;;7.38;;
42602;SDS011;28233;55.748;48.752;2022-08-30T06:12:00;11.85;;;6.70;;
42602;SDS011;28233;55.748;48.752;2022-08-30T06:14:03;14.82;;;8.05;;
42602;SDS011;28233;55.748;48.752;2022-08-30T06:16:06;11.07;;;7.85;;
42602;SDS011;28233;55.748;48.752;2022-08-30T06:18:12;13.02;;;7.95;;
42602;SDS011;28233;55.748;48.752;2022-08-30T06:20:15;24.92;;;7.07;;
42602;SDS011;28233;55.748;48.752;2022-08-30T06:22:21;16.95;;;7.05;;
42602;SDS011;28233;55.748;48.752;2022-08-30T06:24:24;10.90;;;7.80;;
42602;SDS011;28233;55.748;48.752;2022-08-30T06:26:47;15.95;;;6.72;;
42602;SDS011;28233;55.748;48.752;2022-08-30T06:28:51;15.25;;;7.55;;
42602;SDS011;28233;55.748;48.752;2022-08-30T06:30:54;12.45;;;7.50;;
42602;SDS011;28233;55.748;48.752;2022-08-30T06:32:56;13.18;;;7.05;;
42602;SDS011;28233;55.748;48.752;2022-08-30T06:34:59;11.82;;;6.63;;
42602;SDS011;28233;55.748;48.752;2022-08-30T06:37:04;16.13;;;7.05;;
42602;SDS011;28233;55.748;48.752;2022-08-30T06:39:07;9.82;;;6.93;;
42602;SDS011;28233;55.748;48.752;2022-08-30T06:41:12;11.30;;;7.68;;
42602;SDS011;28233;55.748;48.752;2022-08-30T06:43:16;11.50;;;7.35;;
42602;SDS011;28233;55.748;48.752;2022-08-30T06:45:19;11.88;;;7.60;;
42602;SDS011;28233;55.748;48.752;2022-08-30T06:47:22;10.95;;;6.32;;
42602;SDS011;28233;55.748;48.752;2022-08-30T06:49:25;15.48;;;9.23;;
42602;SDS011;28233;55.748;48.752;2022-08-30T06:51:32;15.43;;;7.53;;
42602;SDS011;28233;55.748;48.752;2022-08-30T06:53:37;13.27;;;8.10;;
42602;SDS011;28233;55.748;48.752;2022-08-30T06:55:41;16.42;;;7.38;;
42602;SDS011;28233;55.748;48.752;2022-08-30T06:57:44;11.70;;;7.13;;
42602;SDS011;28233;55.748;48.752;2022-08-30T06:59:47;10.18;;;7.15;;
42602;SDS011;28233;55.748;48.752;2022-08-30T07:01:55;13.25;;;6.95;;
42602;SDS011;28233;55.748;48.752;2022-08-30T07:04:01;14.80;;;7.43;;
42602;SDS011;28233;55.748;48.752;2022-08-30T07:06:05;10.60;;;7.32;;
42602;SDS011;28233;55.748;48.752;2022-08-30T07:08:08;17.48;;;7.03;;
42602;SDS011;28233;55.748;48.752;2022-08-30T07:10:11;13.35;;;7.57;;
42602;SDS011;28233;55.748;48.752;2022-08-30T07:12:18;12.00;;;7.50;;
42602;SDS011;28233;55.748;48.752;2022-08-30T07:14:21;17.02;;;7.70;;
42602;SDS011;28233;55.748;48.752;2022-08-30T07:16:24;10.88;;;6.65;;
42602;SDS011;28233;55.748;48.752;2022-08-30T07:18:27;14.25;;;7.95;;
42602;SDS011;28233;55.748;48.752;2022-08-30T07:20:54;14.68;;;7.47;;
42602;SDS011;28233;55.748;48.752;2022-08-30T07:22:57;11.82;;;7.13;;
42602;SDS011;28233;55.748;48.752;2022-08-30T07:25:00;10.98;;;7.28;;
42602;SDS011;28233;55.748;48.752;2022-08-30T07:27:04;9.80;;;8.30;;
42602;SDS011;28233;55.748;48.752;2022-08-30T07:29:08;13.43;;;6.88;;
42602;SDS011;28233;55.748;48.752;2022-08-30T07:31:12;12.25;;;7.13;;
42602;SDS011;28233;55.748;48.752;2022-08-30T07:33:16;11.18;;;7.10;;
42602;SDS011;28233;55.748;48.752;2022-08-30T07:35:19;17.40;;;7.88;;
42602;SDS011;28233;55.748;48.752;2022-08-30T07:37:22;17.20;;;8.48;;
42602;SDS011;28233;55.748;48.752;2022-08-30T07:39:25;20.38;;;7.25;;
42602;SDS011;28233;55.748;48.752;2022-08-30T07:41:33;13.75;;;7.80;;
42602;SDS011;28233;55.748;48.752;2022-08-30T07:43:40;15.35;;;7.43;;
42602;SDS011;28233;55.748;48.752;2022-08-30T07:45:42;14.27;;;8.80;;
42602;SDS011;28233;55.748;48.752;2022-08-30T07:47:45;14.25;;;7.57;;
42602;SDS011;28233;55.748;48.752;2022-08-30T07:49:48;17.33;;;8.23;;
42602;SDS011;28233;55.748;48.752;2022-08-30T07:51:51;19.85;;;8.07;;
42602;SDS011;28233;55.748;48.752;2022-08-30T07:53:54;13.82;;;8.02;;
42602;SDS011;28233;55.748;48.752;2022-08-30T07:55:58;16.27;;;7.55;;
42602;SDS011;28233;55.748;48.752;2022-08-30T07:58:05;17.00;;;8.13;;
42602;SDS011;28233;55.748;48.752;2022-08-30T08:00:08;16.05;;;8.43;;
42602;SDS011;28233;55.748;48.752;2022-08-30T08:02:11;16.52;;;7.18;;
42602;SDS011;28233;55.748;48.752;2022-08-30T08:04:14;9.07;;;7.13;;
42602;SDS011;28233;55.748;48.752;2022-08-30T08:06:18;17.20;;;8.70;;
42602;SDS011;28233;55.748;48.752;2022-08-30T08:08:22;12.15;;;7.78;;
42602;SDS011;28233;55.748;48.752;2022-08-30T08:10:25;13.20;;;7.40;;
42602;SDS011;28233;55.748;48.752;2022-08-30T08:12:29;13.45;;;7.60;;
42602;SDS011;28233;55.748;48.752;2022-08-30T08:14:33;17.42;;;7.55;;
42602;SDS011;28233;55.748;48.752;2022-08-30T08:16:36;19.70;;;7.18;;
42602;SDS011;28233;55.748;48.752;2022-08-30T08:18:39;13.32;;;7.40;;
42602;SDS011;28233;55.748;48.752;2022-08-30T08:20:42;15.52;;;8.32;;
42602;SDS011;28233;55.748;48.752;2022-08-30T08:22:45;10.80;;;7.60;;
42602;SDS011;28233;55.748;48.752;2022-08-30T08:24:48;19.75;;;8.00;;
42602;SDS011;28233;55.748;48.752;2022-08-30T08:26:51;10.90;;;7.40;;
42602;SDS011;28233;55.748;48.752;2022-08-30T08:28:54;16.73;;;7.90;;
42602;SDS011;28233;55.748;48.752;2022-08-30T08:30:58;12.65;;;7.10;;
42602;SDS011;28233;55.748;48.752;2022-08-30T08:33:05;15.95;;;7.78;;
42602;SDS011;28233;55.748;48.752;2022-08-30T08:35:12;16.00;;;7.65;;
42602;SDS011;28233;55.748;48.752;2022-08-30T08:37:17;17.88;;;8.40;;
42602;SDS011;28233;55.748;48.752;2022-08-30T08:39:22;11.75;;;7.82;;
42602;SDS011;28233;55.748;48.752;2022-08-30T08:41:29;15.57;;;8.15;;
42602;SDS011;28233;55.748;48.752;2022-08-30T08:43:33;16.83;;;8.45;;
42602;SDS011;28233;55.748;48.752;2022-08-30T08:50:52;13.07;;;7.93;;
42602;SDS011;28233;55.748;48.752;2022-08-30T08:53:16;13.35;;;7.78;;
42602;SDS011;28233;55.748;48.752;2022-08-30T08:55:49;17.17;;;8.68;;
42602;SDS011;28233;55.748;48.752;2022-08-30T08:57:53;17.27;;;8.13;;
42602;SDS011;28233;55.748;48.752;2022-08-30T08:59:57;21.67;;;9.70;;
42602;SDS011;28233;55.748;48.752;2022-08-30T09:02:01;11.93;;;7.20;;
42602;SDS011;28233;55.748;48.752;2022-08-30T09:04:30;15.63;;;7.82;;
42602;SDS011;28233;55.748;48.752;2022-08-30T09:08:46;16.45;;;7.55;;
42602;SDS011;28233;55.748;48.752;2022-08-30T09:10:52;14.82;;;7.57;;
42602;SDS011;28233;55.748;48.752;2022-08-30T09:13:02;10.70;;;7.85;;
42602;SDS011;28233;55.748;48.752;2022-08-30T09:15:11;16.05;;;8.23;;
42602;SDS011;28233;55.748;48.752;2022-08-30T09:17:21;15.18;;;7.50;;
42602;SDS011;28233;55.748;48.752;2022-08-30T09:19:28;16.00;;;8.02;;
42602;SDS011;28233;55.748;48.752;2022-08-30T09:21:57;12.45;;;7.28;;
42602;SDS011;28233;55.748;48.752;2022-08-30T09:24:03;13.57;;;7.43;;
42602;SDS011;28233;55.748;48.752;2022-08-30T09:26:08;16.83;;;9.10;;
42602;SDS011;28233;55.748;48.752;2022-08-30T09:28:12;32.58;;;9.48;;
42602;SDS011;28233;55.748;48.752;2022-08-30T09:32:33;27.58;;;10.27;;
42602;SDS011;28233;55.748;48.752;2022-08-30T09:34:41;18.20;;;9.00;;
42602;SDS011;28233;55.748;48.752;2022-08-30T09:36:52;22.73;;;10.90;;
42602;SDS011;28233;55.748;48.752;2022-08-30T09:39:04;22.73;;;11.55;;
42602;SDS011;28233;55.748;48.752;2022-08-30T09:41:36;19.20;;;8.10;;
42602;SDS011;28233;55.748;48.752;2022-08-30T09:43:39;16.98;;;7.80;;
42602;SDS011;28233;55.748;48.752;2022-08-30T09:45:43;27.73;;;9.95;;
42602;SDS011;28233;55.748;48.752;2022-08-30T09:48:21;23.17;;;9.82;;
42602;SDS011;28233;55.748;48.752;2022-08-30T09:50:36;14.73;;;7.95;;
42602;SDS011;28233;55.748;48.752;2022-08-30T09:52:49;20.73;;;8.90;;
42602;SDS011;28233;55.748;48.752;2022-08-30T09:57:44;22.85;;;7.85;;
42602;SDS011;28233;55.748;48.752;2022-08-30T10:00:00;12.02;;;8.05;;
42602;SDS011;28233;55.748;48.752;2022-08-30T10:04:39;16.23;;;8.23;;
42602;SDS011;28233;55.748;48.752;2022-08-30T10:07:19;16.63;;;8.05;;
42602;SDS011;28233;55.748;48.752;2022-08-30T10:09:48;16.55;;;7.55;;
42602;SDS011;28233;55.748;48.752;2022-08-30T10:16:31;16.52;;;7.78;;
42602;SDS011;28233;55.748;48.752;2022-08-30T10:21:46;18.75;;;9.23;;
42602;SDS011;28233;55.748;48.752;2022-08-30T10:24:09;26.92;;;7.65;;
42602;SDS011;28233;55.748;48.752;2022-08-30T10:28:27;15.32;;;8.65;;
42602;SDS011;28233;55.748;48.752;2022-08-30T10:30:37;13.20;;;7.45;;
42602;SDS011;28233;55.748;48.752;2022-08-30T10:34:56;17.05;;;8.40;;
42602;SDS011;28233;55.748;48.752;2022-08-30T10:37:10;14.23;;;8.25;;
42602;SDS011;28233;55.748;48.752;2022-08-30T10:39:23;17.30;;;8.07;;
42602;SDS011;28233;55.748;48.752;2022-08-30T10:41:36;14.35;;;8.40;;
42602;SDS011;28233;55.748;48.752;2022-08-30T10:48:23;13.00;;;7.80;;
42602;SDS011;28233;55.748;48.752;2022-08-30T10:50:34;26.58;;;8.07;;
42602;SDS011;28233;55.748;48.752;2022-08-30T10:52:46;16.40;;;7.72;;
42602;SDS011;28233;55.748;48.752;2022-08-30T10:57:01;22.05;;;7.07;;
42602;SDS011;28233;55.748;48.752;2022-08-30T10:59:04;16.63;;;6.88;;
42602;SDS011;28233;55.748;48.752;2022-08-30T11:03:45;17.50;;;6.78;;
42602;SDS011;28233;55.748;48.752;2022-08-30T11:06:20;24.65;;;6.45;;
42602;SDS011;28233;55.748;48.752;2022-08-30T11:13:34;23.15;;;7.05;;
42602;SDS011;28233;55.748;48.752;2022-08-30T11:18:04;22.45;;;6.30;;
42602;SDS011;28233;55.748;48.752;2022-08-30T11:25:15;20.73;;;6.20;;
42602;SDS011;28233;55.748;48.752;2022-08-30T11:28:08;10.30;;;5.20;;
42602;SDS011;28233;55.748;48.752;2022-08-30T11:37:04;22.70;;;6.53;;
42602;SDS011;28233;55.748;48.752;2022-08-30T11:39:12;13.65;;;5.10;;
42602;SDS011;28233;55.748;48.752;2022-08-30T11:44:31;15.70;;;5.10;;
42602;SDS011;28233;55.748;48.752;2022-08-30T11:46:35;16.30;;;5.22;;
42602;SDS011;28233;55.748;48.752;2022-08-30T11:48:41;19.02;;;5.90;;
42602;SDS011;28233;55.748;48.752;2022-08-30T11:51:00;123.97;;;12.07;;
42602;SDS011;28233;55.748;48.752;2022-08-30T11:53:29;52.33;;;7.43;;
42602;SDS011;28233;55.748;48.752;2022-08-30T12:01:15;63.88;;;8.80;;
42602;SDS011;28233;55.748;48.752;2022-08-30T12:06:04;27.73;;;6.80;;
42602;SDS011;28233;55.748;48.752;2022-08-30T12:08:09;30.58;;;6.20;;
42602;SDS011;28233;55.748;48.752;2022-08-30T12:10:37;18.83;;;5.32;;
42602;SDS011;28233;55.748;48.752;2022-08-30T12:12:44;35.35;;;6.60;;
42602;SDS011;28233;55.748;48.752;2022-08-30T12:14:52;42.47;;;7.15;;
42602;SDS011;28233;55.748;48.752;2022-08-30T12:16:57;17.90;;;5.95;;
42602;SDS011;28233;55.748;48.752;2022-08-30T12:19:22;22.98;;;5.78;;
42602;SDS011;28233;55.748;48.752;2022-08-30T12:21:31;33.53;;;6.38;;
42602;SDS011;28233;55.748;48.752;2022-08-30T12:26:22;25.55;;;5.22;;
42602;SDS011;28233;55.748;48.752;2022-08-30T12:28:34;26.13;;;5.28;;
42602;SDS011;28233;55.748;48.752;2022-08-30T12:30:37;19.33;;;5.78;;
42602;SDS011;28233;55.748;48.752;2022-08-30T12:32:42;20.25;;;5.38;;
42602;SDS011;28233;55.748;48.752;2022-08-30T12:35:00;22.33;;;5.05;;
42602;SDS011;28233;55.748;48.752;2022-08-30T12:37:09;21.20;;;5.22;;
42602;SDS011;28233;55.748;48.752;2022-08-30T12:41:36;14.30;;;5.25;;
42602;SDS011;28233;55.748;48.752;2022-08-30T12:43:49;16.95;;;6.45;;
42602;SDS011;28233;55.748;48.752;2022-08-30T12:45:53;16.20;;;5.10;;
42602;SDS011;28233;55.748;48.752;2022-08-30T12:48:09;23.77;;;6.22;;
42602;SDS011;28233;55.748;48.752;2022-08-30T12:50:18;24.70;;;5.57;;
42602;SDS011;28233;55.748;48.752;2022-08-30T12:54:28;42.47;;;6.43;;
42602;SDS011;28233;55.748;48.752;2022-08-30T12:56:49;23.38;;;5.45;;
42602;SDS011;28233;55.748;48.752;2022-08-30T12:59:39;33.25;;;6.20;;
42602;SDS011;28233;55.748;48.752;2022-08-30T13:01:54;29.80;;;5.35;;
42602;SDS011;28233;55.748;48.752;2022-08-30T13:04:24;26.15;;;5.07;;
42602;SDS011;28233;55.748;48.752;2022-08-30T13:06:39;16.50;;;5.45;;
42602;SDS011;28233;55.748;48.752;2022-08-30T13:13:07;16.73;;;5.22;;
42602;SDS011;28233;55.748;48.752;2022-08-30T13:15:14;24.42;;;5.65;;
42602;SDS011;28233;55.748;48.752;2022-08-30T13:17:28;29.45;;;6.03;;
42602;SDS011;28233;55.748;48.752;2022-08-30T13:19:32;41.53;;;7.63;;
42602;SDS011;28233;55.748;48.752;2022-08-30T13:21:45;22.08;;;5.47;;
42602;SDS011;28233;55.748;48.752;2022-08-30T13:23:57;22.80;;;5.22;;
42602;SDS011;28233;55.748;48.752;2022-08-30T13:26:05;12.60;;;6.25;;
42602;SDS011;28233;55.748;48.752;2022-08-30T13:28:08;17.98;;;4.95;;
42602;SDS011;28233;55.748;48.752;2022-08-30T13:30:13;27.90;;;5.47;;
42602;SDS011;28233;55.748;48.752;2022-08-30T13:32:19;20.38;;;4.97;;
42602;SDS011;28233;55.748;48.752;2022-08-30T13:34:23;17.50;;;4.55;;
42602;SDS011;28233;55.748;48.752;2022-08-30T13:36:33;16.95;;;4.93;;
42602;SDS011;28233;55.748;48.752;2022-08-30T13:38:38;15.00;;;5.22;;
42602;SDS011;28233;55.748;48.752;2022-08-30T13:40:43;16.15;;;5.50;;
42602;SDS011;28233;55.748;48.752;2022-08-30T13:42:46;17.83;;;4.93;;
42602;SDS011;28233;55.748;48.752;2022-08-30T13:44:49;15.07;;;4.40;;
42602;SDS011;28233;55.748;48.752;2022-08-30T13:46:54;22.83;;;5.15;;